sensor_id;sensor_type;location;lat;lon;timestamp;pressure;altitude;pressure_sealevel;temperature;humidity
63339;BME280;47485;51.378;-1.342;2023-02-10T00:00:49;102242.18;;;5.05;27.04
63339;BME280;47485;51.378;-1.342;2023-02-10T00:03:16;102251.20;;;4.56;27.13
63339;BME280;47485;51.378;-1.342;2023-02-10T00:05:44;102250.45;;;5.24;26.87
63339;BME280;47485;51.378;-1.342;2023-02-10T00:08:10;102249.57;;;5.54;27.04
63339;BME280;47485;51.378;-1.342;2023-02-10T00:10:37;102245.39;;;4.84;26.69
63339;BME280;47485;51.378;-1.342;2023-02-10T00:13:04;102244.61;;;4.95;26.94
63339;BME280;47485;51.378;-1.342;2023-02-10T00:15:31;102243.16;;;4.87;27.27
63339;BME280;47485;51.378;-1.342;2023-02-10T00:17:59;102241.91;;;4.12;27.38
63339;BME280;47485;51.378;-1.342;2023-02-10T00:20:27;102242.28;;;3.75;27.30
63339;BME280;47485;51.378;-1.342;2023-02-10T00:22:53;102241.22;;;4.37;26.78
63339;BME280;47485;51.378;-1.342;2023-02-10T00:25:20;102245.83;;;5.23;26.60
63339;BME280;47485;51.378;-1.342;2023-02-10T00:27:47;102245.28;;;3.54;27.13
63339;BME280;47485;51.378;-1.342;2023-02-10T00:30:14;102245.38;;;4.54;26.83
63339;BME280;47485;51.378;-1.342;2023-02-10T00:32:41;102245.21;;;5.90;26.79
63339;BME280;47485;51.378;-1.342;2023-02-10T00:35:08;102248.92;;;3.54;26.75
63339;BME280;47485;51.378;-1.342;2023-02-10T00:37:36;102260.12;;;5.22;26.49
63339;BME280;47485;51.378;-1.342;2023-02-10T00:40:03;102264.30;;;3.13;28.30
63339;BME280;47485;51.378;-1.342;2023-02-10T00:42:30;102253.76;;;2.25;28.38
63339;BME280;47485;51.378;-1.342;2023-02-10T00:44:58;102243.54;;;4.85;25.98
63339;BME280;47485;51.378;-1.342;2023-02-10T00:47:25;102241.76;;;3.98;27.15
63339;BME280;47485;51.378;-1.342;2023-02-10T00:49:52;102250.00;;;4.24;28.63
63339;BME280;47485;51.378;-1.342;2023-02-10T00:52:19;102247.24;;;3.90;30.12
63339;BME280;47485;51.378;-1.342;2023-02-10T00:54:47;102242.45;;;2.17;30.32
63339;BME280;47485;51.378;-1.342;2023-02-10T00:57:14;102236.68;;;2.26;29.85
63339;BME280;47485;51.378;-1.342;2023-02-10T00:59:41;102240.44;;;3.10;29.94
63339;BME280;47485;51.378;-1.342;2023-02-10T01:02:08;102236.89;;;3.31;30.39
63339;BME280;47485;51.378;-1.342;2023-02-10T01:04:35;102237.62;;;2.50;30.18
63339;BME280;47485;51.378;-1.342;2023-02-10T01:07:02;102235.65;;;3.08;29.88
63339;BME280;47485;51.378;-1.342;2023-02-10T01:09:29;102238.42;;;1.18;29.93
63339;BME280;47485;51.378;-1.342;2023-02-10T01:11:57;102238.39;;;2.44;28.96
63339;BME280;47485;51.378;-1.342;2023-02-10T01:14:24;102231.58;;;4.13;26.94
63339;BME280;47485;51.378;-1.342;2023-02-10T01:16:51;102229.56;;;3.20;27.87
63339;BME280;47485;51.378;-1.342;2023-02-10T01:19:18;102233.61;;;4.57;26.68
63339;BME280;47485;51.378;-1.342;2023-02-10T01:21:45;102241.71;;;4.48;26.64
63339;BME280;47485;51.378;-1.342;2023-02-10T01:24:12;102243.30;;;3.94;26.86
63339;BME280;47485;51.378;-1.342;2023-02-10T01:26:39;102247.97;;;2.15;27.20
63339;BME280;47485;51.378;-1.342;2023-02-10T01:29:06;102243.48;;;5.83;24.48
63339;BME280;47485;51.378;-1.342;2023-02-10T01:31:33;102237.04;;;5.09;25.29
63339;BME280;47485;51.378;-1.342;2023-02-10T01:34:00;102233.45;;;5.35;24.89
63339;BME280;47485;51.378;-1.342;2023-02-10T01:36:28;102237.18;;;5.31;25.18
63339;BME280;47485;51.378;-1.342;2023-02-10T01:38:56;102237.27;;;4.39;26.11
63339;BME280;47485;51.378;-1.342;2023-02-10T01:41:24;102237.24;;;4.41;26.79
63339;BME280;47485;51.378;-1.342;2023-02-10T01:43:58;102234.45;;;2.86;28.29
63339;BME280;47485;51.378;-1.342;2023-02-10T01:46:27;102233.10;;;3.67;28.99
63339;BME280;47485;51.378;-1.342;2023-02-10T01:48:55;102231.51;;;3.02;30.05
63339;BME280;47485;51.378;-1.342;2023-02-10T01:51:30;102235.33;;;1.89;30.66
63339;BME280;47485;51.378;-1.342;2023-02-10T01:54:01;102233.63;;;1.68;30.46
63339;BME280;47485;51.378;-1.342;2023-02-10T01:56:29;102233.83;;;1.91;29.81
63339;BME280;47485;51.378;-1.342;2023-02-10T01:58:56;102239.64;;;1.98;29.42
63339;BME280;47485;51.378;-1.342;2023-02-10T02:01:24;102240.61;;;2.92;28.82
63339;BME280;47485;51.378;-1.342;2023-02-10T02:03:51;102241.32;;;3.27;27.96
63339;BME280;47485;51.378;-1.342;2023-02-10T02:06:19;102237.37;;;3.61;27.63
63339;BME280;47485;51.378;-1.342;2023-02-10T02:08:46;102239.27;;;3.43;27.11
63339;BME280;47485;51.378;-1.342;2023-02-10T02:11:20;102241.17;;;4.45;27.47
63339;BME280;47485;51.378;-1.342;2023-02-10T02:14:29;102244.04;;;2.17;28.97
63339;BME280;47485;51.378;-1.342;2023-02-10T02:17:05;102240.46;;;0.96;30.09
63339;BME280;47485;51.378;-1.342;2023-02-10T02:20:15;102236.86;;;2.06;29.66
63339;BME280;47485;51.378;-1.342;2023-02-10T02:22:59;102232.50;;;2.03;29.55
63339;BME280;47485;51.378;-1.342;2023-02-10T02:25:47;102234.94;;;3.25;27.65
63339;BME280;47485;51.378;-1.342;2023-02-10T02:28:25;102240.91;;;2.89;27.86
63339;BME280;47485;51.378;-1.342;2023-02-10T02:31:27;102240.19;;;3.62;27.75
63339;BME280;47485;51.378;-1.342;2023-02-10T02:33:58;102238.09;;;3.12;27.68
63339;BME280;47485;51.378;-1.342;2023-02-10T02:36:31;102240.23;;;2.48;27.93
63339;BME280;47485;51.378;-1.342;2023-02-10T02:39:04;102237.03;;;2.80;27.74
63339;BME280;47485;51.378;-1.342;2023-02-10T02:41:33;102231.95;;;1.86;27.33
63339;BME280;47485;51.378;-1.342;2023-02-10T02:44:02;102229.34;;;0.14;28.85
63339;BME280;47485;51.378;-1.342;2023-02-10T02:46:38;102227.09;;;2.99;26.38
63339;BME280;47485;51.378;-1.342;2023-02-10T02:49:13;102230.10;;;3.71;25.58
63339;BME280;47485;51.378;-1.342;2023-02-10T02:51:50;102222.62;;;2.89;26.21
63339;BME280;47485;51.378;-1.342;2023-02-10T02:54:24;102222.92;;;2.36;27.17
63339;BME280;47485;51.378;-1.342;2023-02-10T02:56:57;102222.17;;;3.01;26.20
63339;BME280;47485;51.378;-1.342;2023-02-10T02:59:32;102223.56;;;3.41;25.74
63339;BME280;47485;51.378;-1.342;2023-02-10T03:02:02;102224.31;;;3.95;25.09
63339;BME280;47485;51.378;-1.342;2023-02-10T03:04:32;102225.57;;;3.87;25.52
63339;BME280;47485;51.378;-1.342;2023-02-10T03:06:59;102229.99;;;4.35;24.97
63339;BME280;47485;51.378;-1.342;2023-02-10T03:09:28;102230.55;;;4.38;25.17
63339;BME280;47485;51.378;-1.342;2023-02-10T03:11:55;102233.84;;;3.49;26.35
63339;BME280;47485;51.378;-1.342;2023-02-10T03:14:23;102229.08;;;3.67;26.14
63339;BME280;47485;51.378;-1.342;2023-02-10T03:16:50;102221.01;;;2.86;25.62
63339;BME280;47485;51.378;-1.342;2023-02-10T03:19:17;102213.62;;;4.13;25.61
63339;BME280;47485;51.378;-1.342;2023-02-10T03:21:45;102212.32;;;4.25;25.35
63339;BME280;47485;51.378;-1.342;2023-02-10T03:24:11;102216.89;;;4.60;25.96
63339;BME280;47485;51.378;-1.342;2023-02-10T03:26:38;102214.90;;;3.78;26.80
63339;BME280;47485;51.378;-1.342;2023-02-10T03:29:05;102216.51;;;3.08;27.44
63339;BME280;47485;51.378;-1.342;2023-02-10T03:31:33;102216.53;;;2.84;27.33
63339;BME280;47485;51.378;-1.342;2023-02-10T03:34:00;102214.17;;;3.35;27.39
63339;BME280;47485;51.378;-1.342;2023-02-10T03:36:28;102214.91;;;2.92;27.44
63339;BME280;47485;51.378;-1.342;2023-02-10T03:38:55;102207.53;;;2.99;26.91
63339;BME280;47485;51.378;-1.342;2023-02-10T03:41:22;102203.13;;;3.44;26.49
63339;BME280;47485;51.378;-1.342;2023-02-10T03:43:49;102199.97;;;3.48;26.23
63339;BME280;47485;51.378;-1.342;2023-02-10T03:46:15;102191.04;;;2.46;26.61
63339;BME280;47485;51.378;-1.342;2023-02-10T03:48:42;102193.55;;;3.78;25.99
63339;BME280;47485;51.378;-1.342;2023-02-10T03:51:10;102188.11;;;4.99;25.69
63339;BME280;47485;51.378;-1.342;2023-02-10T03:53:36;102179.98;;;4.18;26.21
63339;BME280;47485;51.378;-1.342;2023-02-10T03:56:04;102178.61;;;3.34;26.46
63339;BME280;47485;51.378;-1.342;2023-02-10T03:58:31;102177.89;;;3.70;26.68
63339;BME280;47485;51.378;-1.342;2023-02-10T04:00:58;102175.74;;;2.48;27.29
63339;BME280;47485;51.378;-1.342;2023-02-10T04:03:26;102169.82;;;3.30;27.59
63339;BME280;47485;51.378;-1.342;2023-02-10T04:05:53;102169.75;;;2.68;27.73
63339;BME280;47485;51.378;-1.342;2023-02-10T04:08:20;102176.02;;;1.63;27.30
63339;BME280;47485;51.378;-1.342;2023-02-10T04:10:46;102178.28;;;3.81;26.47
63339;BME280;47485;51.378;-1.342;2023-02-10T04:13:13;102176.72;;;3.69;26.42
63339;BME280;47485;51.378;-1.342;2023-02-10T04:15:39;102180.93;;;2.87;26.40
63339;BME280;47485;51.378;-1.342;2023-02-10T04:18:06;102192.57;;;3.19;26.10
63339;BME280;47485;51.378;-1.342;2023-02-10T04:20:33;102195.41;;;1.84;26.72
63339;BME280;47485;51.378;-1.342;2023-02-10T04:23:00;102193.45;;;2.34;26.53
63339;BME280;47485;51.378;-1.342;2023-02-10T04:25:28;102191.71;;;4.03;25.45
63339;BME280;47485;51.378;-1.342;2023-02-10T04:27:55;102187.56;;;3.62;26.29
63339;BME280;47485;51.378;-1.342;2023-02-10T04:30:22;102187.87;;;3.47;27.10
63339;BME280;47485;51.378;-1.342;2023-02-10T04:32:48;102190.90;;;2.54;27.83
63339;BME280;47485;51.378;-1.342;2023-02-10T04:35:16;102199.62;;;1.03;28.55
63339;BME280;47485;51.378;-1.342;2023-02-10T04:37:43;102212.15;;;1.40;29.82
63339;BME280;47485;51.378;-1.342;2023-02-10T04:40:10;102216.51;;;0.60;29.66
63339;BME280;47485;51.378;-1.342;2023-02-10T04:42:37;102213.02;;;-1.06;30.51
63339;BME280;47485;51.378;-1.342;2023-02-10T04:45:04;102199.73;;;2.25;28.43
63339;BME280;47485;51.378;-1.342;2023-02-10T04:47:31;102196.99;;;2.76;27.90
63339;BME280;47485;51.378;-1.342;2023-02-10T04:49:59;102196.83;;;2.61;28.11
63339;BME280;47485;51.378;-1.342;2023-02-10T04:52:26;102202.76;;;1.28;28.05
63339;BME280;47485;51.378;-1.342;2023-02-10T04:54:52;102198.29;;;1.84;27.53
63339;BME280;47485;51.378;-1.342;2023-02-10T04:57:20;102199.18;;;3.45;26.51
63339;BME280;47485;51.378;-1.342;2023-02-10T04:59:47;102197.86;;;2.81;26.77
63339;BME280;47485;51.378;-1.342;2023-02-10T05:02:14;102194.59;;;2.64;27.18
63339;BME280;47485;51.378;-1.342;2023-02-10T05:04:41;102191.63;;;1.78;28.93
63339;BME280;47485;51.378;-1.342;2023-02-10T05:07:09;102184.77;;;1.39;30.09
63339;BME280;47485;51.378;-1.342;2023-02-10T05:09:35;102187.00;;;0.73;31.10
63339;BME280;47485;51.378;-1.342;2023-02-10T05:12:03;102189.41;;;0.23;31.64
63339;BME280;47485;51.378;-1.342;2023-02-10T05:14:31;102188.78;;;0.99;31.99
63339;BME280;47485;51.378;-1.342;2023-02-10T05:16:57;102190.05;;;0.23;31.40
63339;BME280;47485;51.378;-1.342;2023-02-10T05:19:25;102186.04;;;0.08;30.58
63339;BME280;47485;51.378;-1.342;2023-02-10T05:21:52;102183.97;;;0.99;29.72
63339;BME280;47485;51.378;-1.342;2023-02-10T05:24:18;102183.15;;;1.77;29.41
63339;BME280;47485;51.378;-1.342;2023-02-10T05:26:45;102186.70;;;1.66;30.02
63339;BME280;47485;51.378;-1.342;2023-02-10T05:29:12;102182.42;;;1.22;29.96
63339;BME280;47485;51.378;-1.342;2023-02-10T05:31:39;102178.12;;;0.59;29.60
63339;BME280;47485;51.378;-1.342;2023-02-10T05:34:06;102173.95;;;2.74;29.32
63339;BME280;47485;51.378;-1.342;2023-02-10T05:36:33;102174.77;;;1.32;29.39
63339;BME280;47485;51.378;-1.342;2023-02-10T05:38:59;102180.30;;;0.18;29.08
63339;BME280;47485;51.378;-1.342;2023-02-10T05:41:28;102181.22;;;1.72;28.91
63339;BME280;47485;51.378;-1.342;2023-02-10T05:43:54;102181.08;;;2.69;27.62
63339;BME280;47485;51.378;-1.342;2023-02-10T05:46:21;102180.44;;;3.13;27.06
63339;BME280;47485;51.378;-1.342;2023-02-10T05:48:49;102181.44;;;2.35;26.84
63339;BME280;47485;51.378;-1.342;2023-02-10T05:51:15;102182.59;;;1.60;27.75
63339;BME280;47485;51.378;-1.342;2023-02-10T05:53:42;102184.15;;;1.62;27.00
63339;BME280;47485;51.378;-1.342;2023-02-10T05:56:09;102187.36;;;1.47;27.58
63339;BME280;47485;51.378;-1.342;2023-02-10T05:58:36;102194.05;;;-2.44;28.50
63339;BME280;47485;51.378;-1.342;2023-02-10T06:01:05;102198.20;;;-1.34;28.65
63339;BME280;47485;51.378;-1.342;2023-02-10T06:03:32;102198.66;;;3.73;24.79
63339;BME280;47485;51.378;-1.342;2023-02-10T06:05:59;102199.69;;;4.00;24.62
63339;BME280;47485;51.378;-1.342;2023-02-10T06:08:27;102202.30;;;3.56;25.27
63339;BME280;47485;51.378;-1.342;2023-02-10T06:10:55;102202.71;;;3.23;25.51
63339;BME280;47485;51.378;-1.342;2023-02-10T06:13:22;102203.62;;;4.27;25.40
63339;BME280;47485;51.378;-1.342;2023-02-10T06:15:49;102203.75;;;3.17;25.68
63339;BME280;47485;51.378;-1.342;2023-02-10T06:18:16;102210.01;;;2.93;27.13
63339;BME280;47485;51.378;-1.342;2023-02-10T06:20:44;102223.82;;;-0.22;29.14
63339;BME280;47485;51.378;-1.342;2023-02-10T06:23:13;102214.91;;;0.61;29.89
63339;BME280;47485;51.378;-1.342;2023-02-10T06:25:40;102209.26;;;1.49;29.82
63339;BME280;47485;51.378;-1.342;2023-02-10T06:28:07;102201.71;;;0.48;29.52
63339;BME280;47485;51.378;-1.342;2023-02-10T06:30:34;102204.18;;;0.31;28.79
63339;BME280;47485;51.378;-1.342;2023-02-10T06:33:01;102202.80;;;0.35;28.58
63339;BME280;47485;51.378;-1.342;2023-02-10T06:35:28;102203.65;;;-1.91;29.61
63339;BME280;47485;51.378;-1.342;2023-02-10T06:37:55;102199.35;;;-1.85;29.50
63339;BME280;47485;51.378;-1.342;2023-02-10T06:40:22;102198.99;;;-0.94;28.64
63339;BME280;47485;51.378;-1.342;2023-02-10T06:42:48;102194.65;;;1.76;27.03
63339;BME280;47485;51.378;-1.342;2023-02-10T06:45:16;102186.93;;;1.68;25.48
63339;BME280;47485;51.378;-1.342;2023-02-10T06:47:42;102188.88;;;3.57;24.77
63339;BME280;47485;51.378;-1.342;2023-02-10T06:50:09;102187.84;;;2.37;25.70
63339;BME280;47485;51.378;-1.342;2023-02-10T06:52:36;102190.76;;;2.62;26.73
63339;BME280;47485;51.378;-1.342;2023-02-10T06:55:02;102194.89;;;2.23;28.17
63339;BME280;47485;51.378;-1.342;2023-02-10T06:57:29;102202.11;;;0.95;28.96
63339;BME280;47485;51.378;-1.342;2023-02-10T06:59:56;102200.67;;;0.95;28.79
63339;BME280;47485;51.378;-1.342;2023-02-10T07:02:24;102198.63;;;1.16;27.69
63339;BME280;47485;51.378;-1.342;2023-02-10T07:04:51;102200.55;;;1.69;27.16
63339;BME280;47485;51.378;-1.342;2023-02-10T07:07:19;102202.50;;;1.26;27.29
63339;BME280;47485;51.378;-1.342;2023-02-10T07:09:46;102205.11;;;2.76;27.23
63339;BME280;47485;51.378;-1.342;2023-02-10T07:12:13;102211.16;;;2.67;27.22
63339;BME280;47485;51.378;-1.342;2023-02-10T07:14:40;102214.65;;;2.18;27.21
63339;BME280;47485;51.378;-1.342;2023-02-10T07:17:07;102217.71;;;2.27;27.19
63339;BME280;47485;51.378;-1.342;2023-02-10T07:19:34;102222.62;;;2.50;27.33
63339;BME280;47485;51.378;-1.342;2023-02-10T07:22:01;102222.75;;;1.82;27.44
63339;BME280;47485;51.378;-1.342;2023-02-10T07:24:29;102227.93;;;1.24;28.15
63339;BME280;47485;51.378;-1.342;2023-02-10T07:26:56;102227.14;;;3.41;26.95
63339;BME280;47485;51.378;-1.342;2023-02-10T07:29:23;102225.82;;;2.74;27.02
63339;BME280;47485;51.378;-1.342;2023-02-10T07:31:51;102231.51;;;2.09;28.52
63339;BME280;47485;51.378;-1.342;2023-02-10T07:34:18;102238.93;;;2.09;29.43
63339;BME280;47485;51.378;-1.342;2023-02-10T07:36:45;102240.97;;;0.85;30.70
63339;BME280;47485;51.378;-1.342;2023-02-10T07:39:13;102243.87;;;0.74;30.45
63339;BME280;47485;51.378;-1.342;2023-02-10T07:41:40;102249.28;;;1.36;30.26
63339;BME280;47485;51.378;-1.342;2023-02-10T07:44:07;102249.54;;;1.42;30.32
63339;BME280;47485;51.378;-1.342;2023-02-10T07:46:34;102244.79;;;0.91;30.16
63339;BME280;47485;51.378;-1.342;2023-02-10T07:49:01;102241.04;;;0.92;29.64
63339;BME280;47485;51.378;-1.342;2023-02-10T07:51:29;102240.94;;;1.86;28.87
63339;BME280;47485;51.378;-1.342;2023-02-10T07:53:55;102245.20;;;1.33;28.62
63339;BME280;47485;51.378;-1.342;2023-02-10T07:56:24;102251.31;;;-1.19;29.89
63339;BME280;47485;51.378;-1.342;2023-02-10T07:58:50;102244.84;;;1.34;28.12
63339;BME280;47485;51.378;-1.342;2023-02-10T08:01:17;102248.57;;;1.47;27.44
63339;BME280;47485;51.378;-1.342;2023-02-10T08:03:44;102248.81;;;3.44;27.10
63339;BME280;47485;51.378;-1.342;2023-02-10T08:06:11;102247.11;;;-0.60;28.31
63339;BME280;47485;51.378;-1.342;2023-02-10T08:08:38;102242.33;;;-0.42;28.33
63339;BME280;47485;51.378;-1.342;2023-02-10T08:11:06;102242.46;;;1.39;27.96
63339;BME280;47485;51.378;-1.342;2023-02-10T08:13:33;102241.49;;;3.27;26.04
63339;BME280;47485;51.378;-1.342;2023-02-10T08:16:03;102240.04;;;2.94;26.23
63339;BME280;47485;51.378;-1.342;2023-02-10T08:18:30;102242.54;;;3.37;25.55
63339;BME280;47485;51.378;-1.342;2023-02-10T08:20:58;102244.28;;;3.14;26.01
63339;BME280;47485;51.378;-1.342;2023-02-10T08:23:25;102250.56;;;2.00;26.78
63339;BME280;47485;51.378;-1.342;2023-02-10T08:25:51;102251.89;;;1.74;27.59
63339;BME280;47485;51.378;-1.342;2023-02-10T08:28:19;102254.26;;;2.12;26.89
63339;BME280;47485;51.378;-1.342;2023-02-10T08:30:46;102256.60;;;2.49;26.67
63339;BME280;47485;51.378;-1.342;2023-02-10T08:33:13;102259.83;;;3.24;26.05
63339;BME280;47485;51.378;-1.342;2023-02-10T08:35:40;102261.43;;;0.97;26.69
63339;BME280;47485;51.378;-1.342;2023-02-10T08:38:07;102263.83;;;4.45;25.67
63339;BME280;47485;51.378;-1.342;2023-02-10T08:40:35;102267.60;;;4.06;25.52
63339;BME280;47485;51.378;-1.342;2023-02-10T08:43:02;102267.42;;;4.09;26.18
63339;BME280;47485;51.378;-1.342;2023-02-10T08:45:29;102267.94;;;4.75;27.25
63339;BME280;47485;51.378;-1.342;2023-02-10T08:47:56;102269.91;;;3.61;27.78
63339;BME280;47485;51.378;-1.342;2023-02-10T08:50:24;102270.02;;;1.53;29.25
63339;BME280;47485;51.378;-1.342;2023-02-10T08:52:51;102267.77;;;3.17;28.23
63339;BME280;47485;51.378;-1.342;2023-02-10T08:55:19;102276.81;;;2.25;28.46
63339;BME280;47485;51.378;-1.342;2023-02-10T08:57:45;102284.14;;;1.13;29.21
63339;BME280;47485;51.378;-1.342;2023-02-10T09:00:13;102280.95;;;2.29;28.49
63339;BME280;47485;51.378;-1.342;2023-02-10T09:02:40;102280.14;;;1.90;28.09
63339;BME280;47485;51.378;-1.342;2023-02-10T09:05:06;102284.61;;;0.67;27.91
63339;BME280;47485;51.378;-1.342;2023-02-10T09:07:33;102288.87;;;1.69;27.24
63339;BME280;47485;51.378;-1.342;2023-02-10T09:10:00;102288.49;;;1.36;26.96
63339;BME280;47485;51.378;-1.342;2023-02-10T09:12:28;102292.12;;;3.34;26.63
63339;BME280;47485;51.378;-1.342;2023-02-10T09:14:55;102297.97;;;1.97;26.38
63339;BME280;47485;51.378;-1.342;2023-02-10T09:17:22;102301.63;;;4.87;24.90
63339;BME280;47485;51.378;-1.342;2023-02-10T09:19:48;102303.86;;;4.55;24.67
63339;BME280;47485;51.378;-1.342;2023-02-10T09:22:15;102302.50;;;4.45;25.82
63339;BME280;47485;51.378;-1.342;2023-02-10T09:24:42;102301.60;;;3.80;26.20
63339;BME280;47485;51.378;-1.342;2023-02-10T09:27:09;102303.49;;;2.17;26.45
63339;BME280;47485;51.378;-1.342;2023-02-10T09:29:36;102303.98;;;2.98;26.08
63339;BME280;47485;51.378;-1.342;2023-02-10T09:32:03;102299.70;;;3.61;25.56
63339;BME280;47485;51.378;-1.342;2023-02-10T09:34:30;102298.23;;;3.82;25.94
63339;BME280;47485;51.378;-1.342;2023-02-10T09:36:57;102294.99;;;5.15;25.73
63339;BME280;47485;51.378;-1.342;2023-02-10T09:39:23;102295.93;;;3.67;25.49
63339;BME280;47485;51.378;-1.342;2023-02-10T09:41:55;102307.88;;;3.29;26.43
63339;BME280;47485;51.378;-1.342;2023-02-10T09:44:26;102308.98;;;3.79;25.80
63339;BME280;47485;51.378;-1.342;2023-02-10T09:47:06;102306.51;;;5.57;25.14
63339;BME280;47485;51.378;-1.342;2023-02-10T09:49:51;102304.90;;;6.19;24.61
63339;BME280;47485;51.378;-1.342;2023-02-10T09:52:31;102313.34;;;4.84;27.75
63339;BME280;47485;51.378;-1.342;2023-02-10T09:54:59;102314.95;;;2.93;30.83
63339;BME280;47485;51.378;-1.342;2023-02-10T09:57:34;102311.57;;;2.18;33.22
63339;BME280;47485;51.378;-1.342;2023-02-10T10:00:05;102317.28;;;1.21;34.12
63339;BME280;47485;51.378;-1.342;2023-02-10T10:02:44;102316.14;;;1.36;34.68
63339;BME280;47485;51.378;-1.342;2023-02-10T10:05:19;102305.50;;;2.07;33.74
63339;BME280;47485;51.378;-1.342;2023-02-10T10:07:50;102305.29;;;2.06;33.74
63339;BME280;47485;51.378;-1.342;2023-02-10T10:10:24;102306.79;;;2.40;33.18
63339;BME280;47485;51.378;-1.342;2023-02-10T10:12:54;102310.69;;;2.40;34.17
63339;BME280;47485;51.378;-1.342;2023-02-10T10:15:23;102305.53;;;2.81;34.68
63339;BME280;47485;51.378;-1.342;2023-02-10T10:18:03;102295.80;;;2.17;34.82
63339;BME280;47485;51.378;-1.342;2023-02-10T10:20:45;102289.93;;;1.61;33.78
63339;BME280;47485;51.378;-1.342;2023-02-10T10:23:25;102291.66;;;1.92;35.31
63339;BME280;47485;51.378;-1.342;2023-02-10T10:26:02;102300.08;;;2.16;36.08
63339;BME280;47485;51.378;-1.342;2023-02-10T10:28:42;102300.94;;;-0.50;39.13
63339;BME280;47485;51.378;-1.342;2023-02-10T10:31:16;102304.63;;;0.32;37.47
63339;BME280;47485;51.378;-1.342;2023-02-10T10:33:49;102308.11;;;2.21;36.50
63339;BME280;47485;51.378;-1.342;2023-02-10T10:36:18;102310.51;;;1.68;38.80
63339;BME280;47485;51.378;-1.342;2023-02-10T10:38:49;102302.21;;;0.87;39.10
63339;BME280;47485;51.378;-1.342;2023-02-10T10:41:18;102300.96;;;0.73;38.61
63339;BME280;47485;51.378;-1.342;2023-02-10T10:43:49;102297.79;;;0.67;39.42
63339;BME280;47485;51.378;-1.342;2023-02-10T10:46:20;102295.45;;;1.58;38.30
63339;BME280;47485;51.378;-1.342;2023-02-10T10:48:50;102300.01;;;0.17;39.29
63339;BME280;47485;51.378;-1.342;2023-02-10T10:51:17;102296.67;;;-0.59;40.65
63339;BME280;47485;51.378;-1.342;2023-02-10T10:53:47;102298.56;;;-0.46;42.07
63339;BME280;47485;51.378;-1.342;2023-02-10T10:56:25;102299.19;;;0.91;42.50
63339;BME280;47485;51.378;-1.342;2023-02-10T10:58:53;102302.43;;;-0.19;44.53
63339;BME280;47485;51.378;-1.342;2023-02-10T11:01:31;102302.80;;;0.09;43.98
63339;BME280;47485;51.378;-1.342;2023-02-10T11:04:03;102296.49;;;-0.46;44.70
63339;BME280;47485;51.378;-1.342;2023-02-10T11:06:33;102297.53;;;-0.87;45.82
63339;BME280;47485;51.378;-1.342;2023-02-10T11:09:04;102290.85;;;-0.17;44.01
63339;BME280;47485;51.378;-1.342;2023-02-10T11:11:33;102295.27;;;-0.02;43.32
63339;BME280;47485;51.378;-1.342;2023-02-10T11:14:01;102297.62;;;-0.03;45.94
63339;BME280;47485;51.378;-1.342;2023-02-10T11:16:29;102298.35;;;0.35;44.69
63339;BME280;47485;51.378;-1.342;2023-02-10T11:18:58;102294.95;;;-0.33;44.45
63339;BME280;47485;51.378;-1.342;2023-02-10T11:21:33;102294.64;;;-0.59;43.17
63339;BME280;47485;51.378;-1.342;2023-02-10T11:24:01;102291.49;;;0.37;41.85
63339;BME280;47485;51.378;-1.342;2023-02-10T11:26:29;102287.86;;;1.35;40.07
63339;BME280;47485;51.378;-1.342;2023-02-10T11:29:08;102291.84;;;-0.27;41.88
63339;BME280;47485;51.378;-1.342;2023-02-10T11:31:35;102283.37;;;-1.08;44.06
63339;BME280;47485;51.378;-1.342;2023-02-10T11:34:05;102281.36;;;-0.84;43.61
63339;BME280;47485;51.378;-1.342;2023-02-10T11:36:41;102284.88;;;-0.27;42.89
63339;BME280;47485;51.378;-1.342;2023-02-10T11:39:17;102281.22;;;-1.19;43.36
63339;BME280;47485;51.378;-1.342;2023-02-10T11:41:45;102284.92;;;0.86;40.64
63339;BME280;47485;51.378;-1.342;2023-02-10T11:44:22;102280.79;;;0.19;41.47
63339;BME280;47485;51.378;-1.342;2023-02-10T11:46:55;102278.11;;;0.92;40.62
63339;BME280;47485;51.378;-1.342;2023-02-10T11:49:22;102274.93;;;1.35;40.88
63339;BME280;47485;51.378;-1.342;2023-02-10T11:51:51;102273.74;;;2.02;40.87
63339;BME280;47485;51.378;-1.342;2023-02-10T11:54:19;102271.35;;;0.86;40.98
63339;BME280;47485;51.378;-1.342;2023-02-10T11:56:56;102269.37;;;0.40;43.22
63339;BME280;47485;51.378;-1.342;2023-02-10T11:59:34;102262.76;;;1.33;42.56
63339;BME280;47485;51.378;-1.342;2023-02-10T12:02:04;102261.15;;;0.39;42.72
63339;BME280;47485;51.378;-1.342;2023-02-10T12:04:51;102258.43;;;1.48;41.00
63339;BME280;47485;51.378;-1.342;2023-02-10T12:07:28;102258.58;;;1.41;41.63
63339;BME280;47485;51.378;-1.342;2023-02-10T12:10:08;102251.88;;;0.63;40.72
63339;BME280;47485;51.378;-1.342;2023-02-10T12:12:44;102255.41;;;2.38;41.94
63339;BME280;47485;51.378;-1.342;2023-02-10T12:15:20;102255.32;;;0.48;42.63
63339;BME280;47485;51.378;-1.342;2023-02-10T12:18:00;102243.62;;;1.03;41.21
63339;BME280;47485;51.378;-1.342;2023-02-10T12:20:37;102250.32;;;0.42;43.17
63339;BME280;47485;51.378;-1.342;2023-02-10T12:24:21;102242.69;;;0.42;45.04
63339;BME280;47485;51.378;-1.342;2023-02-10T12:26:53;102239.28;;;1.27;43.86
63339;BME280;47485;51.378;-1.342;2023-02-10T12:29:31;102238.81;;;-0.15;46.06
63339;BME280;47485;51.378;-1.342;2023-02-10T12:32:05;102237.27;;;1.43;45.28
63339;BME280;47485;51.378;-1.342;2023-02-10T12:34:48;102235.39;;;0.49;45.08
63339;BME280;47485;51.378;-1.342;2023-02-10T12:37:27;102231.68;;;-0.02;42.67
63339;BME280;47485;51.378;-1.342;2023-02-10T12:40:12;102231.19;;;2.54;41.66
63339;BME280;47485;51.378;-1.342;2023-02-10T12:42:50;102226.43;;;2.21;42.58
63339;BME280;47485;51.378;-1.342;2023-02-10T12:45:26;102223.13;;;2.37;42.17
63339;BME280;47485;51.378;-1.342;2023-02-10T12:48:02;102220.36;;;1.03;42.32
63339;BME280;47485;51.378;-1.342;2023-02-10T12:50:40;102212.52;;;2.04;42.64
63339;BME280;47485;51.378;-1.342;2023-02-10T12:53:16;102208.07;;;1.55;42.70
63339;BME280;47485;51.378;-1.342;2023-02-10T12:55:50;102209.06;;;0.48;43.91
63339;BME280;47485;51.378;-1.342;2023-02-10T12:58:20;102204.08;;;0.18;42.55
63339;BME280;47485;51.378;-1.342;2023-02-10T13:00:51;102200.33;;;2.30;41.54
63339;BME280;47485;51.378;-1.342;2023-02-10T13:03:24;102201.42;;;2.61;39.92